sensor_id;sensor_type;location;lat;lon;timestamp;pressure;altitude;pressure_sealevel;temperature;humidity
73566;BME280;61846;52.970;-3.168;2024-03-07T00:00:47;101321.54;;;5.25;63.51
73566;BME280;61846;52.970;-3.168;2024-03-07T00:03:12;101325.33;;;4.69;66.12
73566;BME280;61846;52.970;-3.168;2024-03-07T00:05:38;101320.09;;;5.69;63.58
73566;BME280;61846;52.970;-3.168;2024-03-07T00:08:04;101324.71;;;6.39;59.81
73566;BME280;61846;52.970;-3.168;2024-03-07T00:10:29;101324.30;;;6.12;60.12
73566;BME280;61846;52.970;-3.168;2024-03-07T00:12:54;101323.91;;;6.82;58.66
73566;BME280;61846;52.970;-3.168;2024-03-07T00:15:20;101323.92;;;6.54;58.48
73566;BME280;61846;52.970;-3.168;2024-03-07T00:17:45;101330.81;;;5.53;60.45
73566;BME280;61846;52.970;-3.168;2024-03-07T00:20:11;101324.95;;;7.48;55.36
73566;BME280;61846;52.970;-3.168;2024-03-07T00:22:36;101327.32;;;7.03;55.90
73566;BME280;61846;52.970;-3.168;2024-03-07T00:25:01;101327.92;;;7.83;53.79
73566;BME280;61846;52.970;-3.168;2024-03-07T00:27:27;101327.60;;;7.23;56.18
73566;BME280;61846;52.970;-3.168;2024-03-07T00:29:52;101323.97;;;7.11;55.87
73566;BME280;61846;52.970;-3.168;2024-03-07T00:32:18;101321.46;;;8.40;52.22
73566;BME280;61846;52.970;-3.168;2024-03-07T00:34:43;101324.55;;;7.17;54.18
73566;BME280;61846;52.970;-3.168;2024-03-07T00:37:08;101323.46;;;8.80;51.04
73566;BME280;61846;52.970;-3.168;2024-03-07T00:39:34;101323.30;;;9.51;49.06
73566;BME280;61846;52.970;-3.168;2024-03-07T00:41:59;101320.91;;;9.38;48.05
73566;BME280;61846;52.970;-3.168;2024-03-07T00:44:25;101324.59;;;9.33;47.80
73566;BME280;61846;52.970;-3.168;2024-03-07T00:46:50;101323.30;;;9.73;47.22
73566;BME280;61846;52.970;-3.168;2024-03-07T00:49:16;101321.52;;;9.00;47.65
73566;BME280;61846;52.970;-3.168;2024-03-07T00:51:41;101322.53;;;9.24;47.42
73566;BME280;61846;52.970;-3.168;2024-03-07T00:54:06;101321.59;;;9.27;47.93
73566;BME280;61846;52.970;-3.168;2024-03-07T00:56:31;101317.66;;;9.92;46.52
73566;BME280;61846;52.970;-3.168;2024-03-07T00:58:56;101318.68;;;9.14;46.99
73566;BME280;61846;52.970;-3.168;2024-03-07T01:01:21;101317.79;;;9.39;46.24
73566;BME280;61846;52.970;-3.168;2024-03-07T01:03:47;101319.43;;;9.57;45.67
73566;BME280;61846;52.970;-3.168;2024-03-07T01:06:12;101315.55;;;9.40;45.90
73566;BME280;61846;52.970;-3.168;2024-03-07T01:08:38;101317.85;;;9.25;46.00
73566;BME280;61846;52.970;-3.168;2024-03-07T01:11:03;101317.12;;;9.45;45.34
73566;BME280;61846;52.970;-3.168;2024-03-07T01:13:28;101322.57;;;9.52;45.57
73566;BME280;61846;52.970;-3.168;2024-03-07T01:15:54;101326.53;;;9.22;45.85
73566;BME280;61846;52.970;-3.168;2024-03-07T01:18:21;101327.51;;;9.12;46.12
73566;BME280;61846;52.970;-3.168;2024-03-07T01:20:45;101328.92;;;8.92;45.89
73566;BME280;61846;52.970;-3.168;2024-03-07T01:23:10;101329.03;;;8.58;46.69
73566;BME280;61846;52.970;-3.168;2024-03-07T01:25:36;101329.00;;;8.24;48.22
73566;BME280;61846;52.970;-3.168;2024-03-07T01:28:02;101327.96;;;8.41;47.86
73566;BME280;61846;52.970;-3.168;2024-03-07T01:30:27;101329.54;;;8.94;47.16
73566;BME280;61846;52.970;-3.168;2024-03-07T01:32:53;101324.59;;;8.40;48.42
73566;BME280;61846;52.970;-3.168;2024-03-07T01:35:18;101320.98;;;8.15;49.36
73566;BME280;61846;52.970;-3.168;2024-03-07T01:37:43;101322.76;;;8.49;48.20
73566;BME280;61846;52.970;-3.168;2024-03-07T01:40:12;101322.84;;;8.58;47.94
73566;BME280;61846;52.970;-3.168;2024-03-07T01:42:34;101327.31;;;8.84;47.64
73566;BME280;61846;52.970;-3.168;2024-03-07T01:45:00;101324.30;;;8.59;47.48
73566;BME280;61846;52.970;-3.168;2024-03-07T01:47:26;101324.49;;;8.63;48.00
73566;BME280;61846;52.970;-3.168;2024-03-07T01:49:51;101321.56;;;8.08;48.74
73566;BME280;61846;52.970;-3.168;2024-03-07T01:52:17;101326.63;;;7.72;49.07
73566;BME280;61846;52.970;-3.168;2024-03-07T01:54:42;101325.24;;;7.64;48.61
73566;BME280;61846;52.970;-3.168;2024-03-07T01:57:08;101324.84;;;8.02;48.12
73566;BME280;61846;52.970;-3.168;2024-03-07T01:59:33;101330.90;;;8.26;47.54
73566;BME280;61846;52.970;-3.168;2024-03-07T02:01:58;101322.82;;;8.43;47.45
73566;BME280;61846;52.970;-3.168;2024-03-07T02:04:25;101330.21;;;8.68;47.24
73566;BME280;61846;52.970;-3.168;2024-03-07T02:06:49;101329.42;;;7.76;48.57
73566;BME280;61846;52.970;-3.168;2024-03-07T02:09:14;101326.30;;;8.67;47.49
73566;BME280;61846;52.970;-3.168;2024-03-07T02:11:40;101326.16;;;8.11;47.90
73566;BME280;61846;52.970;-3.168;2024-03-07T02:14:06;101324.44;;;8.08;47.82
73566;BME280;61846;52.970;-3.168;2024-03-07T02:16:31;101323.97;;;8.69;46.44
73566;BME280;61846;52.970;-3.168;2024-03-07T02:18:57;101318.51;;;8.33;46.98
73566;BME280;61846;52.970;-3.168;2024-03-07T02:21:22;101320.25;;;8.83;45.90
73566;BME280;61846;52.970;-3.168;2024-03-07T02:23:48;101323.41;;;8.22;47.27
73566;BME280;61846;52.970;-3.168;2024-03-07T02:26:13;101325.13;;;8.37;46.92
73566;BME280;61846;52.970;-3.168;2024-03-07T02:28:39;101325.40;;;8.95;45.71
73566;BME280;61846;52.970;-3.168;2024-03-07T02:31:05;101325.96;;;8.69;46.21
73566;BME280;61846;52.970;-3.168;2024-03-07T02:33:30;101323.17;;;8.64;46.19
73566;BME280;61846;52.970;-3.168;2024-03-07T02:35:56;101319.24;;;8.24;47.05
73566;BME280;61846;52.970;-3.168;2024-03-07T02:38:21;101326.58;;;8.84;45.97
73566;BME280;61846;52.970;-3.168;2024-03-07T02:40:46;101321.24;;;8.86;45.91
73566;BME280;61846;52.970;-3.168;2024-03-07T02:43:12;101321.84;;;8.93;45.96
73566;BME280;61846;52.970;-3.168;2024-03-07T02:45:38;101317.28;;;8.15;47.64
73566;BME280;61846;52.970;-3.168;2024-03-07T02:48:04;101318.73;;;8.37;47.83
73566;BME280;61846;52.970;-3.168;2024-03-07T02:50:28;101319.29;;;8.29;48.33
73566;BME280;61846;52.970;-3.168;2024-03-07T02:52:53;101318.05;;;7.84;49.00
73566;BME280;61846;52.970;-3.168;2024-03-07T02:55:19;101314.77;;;7.88;49.90
73566;BME280;61846;52.970;-3.168;2024-03-07T02:57:44;101312.49;;;8.45;49.08
73566;BME280;61846;52.970;-3.168;2024-03-07T03:00:11;101308.97;;;8.57;48.44
73566;BME280;61846;52.970;-3.168;2024-03-07T03:02:35;101306.25;;;8.79;47.98
73566;BME280;61846;52.970;-3.168;2024-03-07T03:05:00;101304.25;;;9.07;47.23
73566;BME280;61846;52.970;-3.168;2024-03-07T03:07:26;101304.65;;;9.19;46.89
73566;BME280;61846;52.970;-3.168;2024-03-07T03:09:51;101303.56;;;7.95;48.89
73566;BME280;61846;52.970;-3.168;2024-03-07T03:12:16;101302.56;;;8.10;48.50
73566;BME280;61846;52.970;-3.168;2024-03-07T03:14:41;101304.20;;;8.24;48.60
73566;BME280;61846;52.970;-3.168;2024-03-07T03:17:07;101302.69;;;8.82;47.35
73566;BME280;61846;52.970;-3.168;2024-03-07T03:19:32;101302.67;;;8.49;47.97
73566;BME280;61846;52.970;-3.168;2024-03-07T03:21:57;101302.42;;;8.85;47.38
73566;BME280;61846;52.970;-3.168;2024-03-07T03:24:22;101304.03;;;8.08;48.71
73566;BME280;61846;52.970;-3.168;2024-03-07T03:26:48;101303.56;;;8.74;47.68
73566;BME280;61846;52.970;-3.168;2024-03-07T03:29:13;101305.19;;;8.42;47.99
73566;BME280;61846;52.970;-3.168;2024-03-07T03:31:39;101310.29;;;8.71;47.24
73566;BME280;61846;52.970;-3.168;2024-03-07T03:34:04;101302.50;;;8.40;47.97
73566;BME280;61846;52.970;-3.168;2024-03-07T03:36:30;101301.36;;;8.71;47.32
73566;BME280;61846;52.970;-3.168;2024-03-07T03:38:55;101300.05;;;8.67;47.04
73566;BME280;61846;52.970;-3.168;2024-03-07T03:41:21;101300.56;;;7.13;49.58
73566;BME280;61846;52.970;-3.168;2024-03-07T03:43:47;101303.62;;;7.74;50.73
73566;BME280;61846;52.970;-3.168;2024-03-07T03:46:12;101300.38;;;8.20;49.49
73566;BME280;61846;52.970;-3.168;2024-03-07T03:48:38;101298.89;;;8.11;49.10
73566;BME280;61846;52.970;-3.168;2024-03-07T03:51:03;101296.41;;;8.30;48.85
73566;BME280;61846;52.970;-3.168;2024-03-07T03:53:28;101298.48;;;7.26;50.25
73566;BME280;61846;52.970;-3.168;2024-03-07T03:55:53;101298.49;;;7.40;50.44
73566;BME280;61846;52.970;-3.168;2024-03-07T03:58:19;101297.38;;;7.51;50.47
73566;BME280;61846;52.970;-3.168;2024-03-07T04:00:44;101295.42;;;7.99;49.53
73566;BME280;61846;52.970;-3.168;2024-03-07T04:03:09;101294.50;;;8.20;50.49
73566;BME280;61846;52.970;-3.168;2024-03-07T04:05:35;101292.92;;;7.71;50.92
73566;BME280;61846;52.970;-3.168;2024-03-07T04:08:00;101295.33;;;7.83;52.28
73566;BME280;61846;52.970;-3.168;2024-03-07T04:10:26;101295.44;;;7.02;52.92
73566;BME280;61846;52.970;-3.168;2024-03-07T04:12:51;101294.92;;;7.21;54.15
73566;BME280;61846;52.970;-3.168;2024-03-07T04:15:18;101294.26;;;7.11;55.52
73566;BME280;61846;52.970;-3.168;2024-03-07T04:17:42;101295.32;;;6.65;56.01
73566;BME280;61846;52.970;-3.168;2024-03-07T04:20:08;101291.04;;;7.06;54.86
73566;BME280;61846;52.970;-3.168;2024-03-07T04:22:33;101296.91;;;7.47;53.64
73566;BME280;61846;52.970;-3.168;2024-03-07T04:24:58;101295.91;;;7.29;54.94
73566;BME280;61846;52.970;-3.168;2024-03-07T04:27:23;101298.29;;;7.18;54.49
73566;BME280;61846;52.970;-3.168;2024-03-07T04:29:49;101297.43;;;7.17;54.44
73566;BME280;61846;52.970;-3.168;2024-03-07T04:32:15;101305.45;;;7.02;56.18
73566;BME280;61846;52.970;-3.168;2024-03-07T04:34:40;101309.27;;;6.09;59.46
73566;BME280;61846;52.970;-3.168;2024-03-07T04:37:06;101310.86;;;5.56;61.17
73566;BME280;61846;52.970;-3.168;2024-03-07T04:39:31;101306.99;;;6.73;58.21
73566;BME280;61846;52.970;-3.168;2024-03-07T04:41:56;101308.13;;;6.09;59.64
73566;BME280;61846;52.970;-3.168;2024-03-07T04:44:21;101311.06;;;5.93;60.84
73566;BME280;61846;52.970;-3.168;2024-03-07T04:46:47;101309.81;;;5.74;62.42
73566;BME280;61846;52.970;-3.168;2024-03-07T04:49:13;101317.45;;;4.64;63.95
73566;BME280;61846;52.970;-3.168;2024-03-07T04:51:38;101322.39;;;4.54;67.64
73566;BME280;61846;52.970;-3.168;2024-03-07T04:54:03;101325.07;;;2.59;74.21
73566;BME280;61846;52.970;-3.168;2024-03-07T04:56:29;101321.65;;;4.48;69.20
73566;BME280;61846;52.970;-3.168;2024-03-07T04:58:55;101316.79;;;6.09;63.76
73566;BME280;61846;52.970;-3.168;2024-03-07T05:01:20;101320.41;;;6.36;62.21
73566;BME280;61846;52.970;-3.168;2024-03-07T05:03:45;101320.04;;;6.44;60.63
73566;BME280;61846;52.970;-3.168;2024-03-07T05:06:11;101325.63;;;4.16;67.87
73566;BME280;61846;52.970;-3.168;2024-03-07T05:08:36;101324.37;;;5.21;66.06
73566;BME280;61846;52.970;-3.168;2024-03-07T05:11:01;101324.76;;;5.99;63.16
73566;BME280;61846;52.970;-3.168;2024-03-07T05:13:27;101319.65;;;6.18;62.64
73566;BME280;61846;52.970;-3.168;2024-03-07T05:15:52;101319.57;;;5.68;64.38
73566;BME280;61846;52.970;-3.168;2024-03-07T05:18:17;101322.22;;;5.15;64.65
73566;BME280;61846;52.970;-3.168;2024-03-07T05:20:42;101325.73;;;6.05;62.22
73566;BME280;61846;52.970;-3.168;2024-03-07T05:23:07;101320.68;;;6.12;63.44
73566;BME280;61846;52.970;-3.168;2024-03-07T05:25:33;101315.73;;;6.47;60.99
73566;BME280;61846;52.970;-3.168;2024-03-07T05:27:58;101319.85;;;5.69;61.41
73566;BME280;61846;52.970;-3.168;2024-03-07T05:30:23;101322.38;;;6.59;60.34
73566;BME280;61846;52.970;-3.168;2024-03-07T05:32:48;101325.10;;;5.56;63.12
73566;BME280;61846;52.970;-3.168;2024-03-07T05:35:14;101322.20;;;6.30;60.90
73566;BME280;61846;52.970;-3.168;2024-03-07T05:37:39;101323.27;;;6.61;61.29
73566;BME280;61846;52.970;-3.168;2024-03-07T05:40:06;101321.92;;;6.22;60.96
73566;BME280;61846;52.970;-3.168;2024-03-07T05:42:30;101322.69;;;6.18;60.81
73566;BME280;61846;52.970;-3.168;2024-03-07T05:44:56;101326.18;;;5.93;62.55
73566;BME280;61846;52.970;-3.168;2024-03-07T05:47:21;101324.42;;;5.85;63.59
73566;BME280;61846;52.970;-3.168;2024-03-07T05:49:46;101315.36;;;6.54;60.80
73566;BME280;61846;52.970;-3.168;2024-03-07T05:52:11;101325.75;;;6.28;60.93
73566;BME280;61846;52.970;-3.168;2024-03-07T05:54:37;101327.10;;;7.00;58.94
73566;BME280;61846;52.970;-3.168;2024-03-07T05:57:03;101325.65;;;6.45;60.38
73566;BME280;61846;52.970;-3.168;2024-03-07T05:59:28;101321.50;;;6.82;59.53
73566;BME280;61846;52.970;-3.168;2024-03-07T06:01:54;101323.91;;;6.82;59.44
73566;BME280;61846;52.970;-3.168;2024-03-07T06:04:19;101323.33;;;7.13;58.35
73566;BME280;61846;52.970;-3.168;2024-03-07T06:06:44;101326.93;;;6.24;60.85
73566;BME280;61846;52.970;-3.168;2024-03-07T06:09:10;101326.87;;;6.53;59.91
73566;BME280;61846;52.970;-3.168;2024-03-07T06:11:35;101326.26;;;7.05;59.12
73566;BME280;61846;52.970;-3.168;2024-03-07T06:14:00;101327.61;;;5.82;62.04
73566;BME280;61846;52.970;-3.168;2024-03-07T06:16:25;101322.37;;;6.72;60.33
73566;BME280;61846;52.970;-3.168;2024-03-07T06:18:51;101326.57;;;5.60;61.90
73566;BME280;61846;52.970;-3.168;2024-03-07T06:21:17;101323.51;;;5.80;61.32
73566;BME280;61846;52.970;-3.168;2024-03-07T06:23:42;101325.62;;;6.12;61.39
73566;BME280;61846;52.970;-3.168;2024-03-07T06:26:12;101324.18;;;5.82;63.56
73566;BME280;61846;52.970;-3.168;2024-03-07T06:28:33;101324.79;;;5.61;62.89
73566;BME280;61846;52.970;-3.168;2024-03-07T06:30:58;101327.89;;;6.14;61.10
73566;BME280;61846;52.970;-3.168;2024-03-07T06:33:24;101332.46;;;5.61;63.72
73566;BME280;61846;52.970;-3.168;2024-03-07T06:35:49;101333.31;;;5.46;65.35
73566;BME280;61846;52.970;-3.168;2024-03-07T06:38:15;101341.17;;;5.35;64.75
73566;BME280;61846;52.970;-3.168;2024-03-07T06:40:42;101343.38;;;5.10;65.41
73566;BME280;61846;52.970;-3.168;2024-03-07T06:43:06;101348.57;;;4.20;68.80
73566;BME280;61846;52.970;-3.168;2024-03-07T06:45:32;101354.24;;;4.96;65.75
73566;BME280;61846;52.970;-3.168;2024-03-07T06:47:57;101357.07;;;3.42;70.91
73566;BME280;61846;52.970;-3.168;2024-03-07T06:50:22;101359.03;;;3.43;72.98
73566;BME280;61846;52.970;-3.168;2024-03-07T06:52:48;101366.31;;;1.81;77.82
73566;BME280;61846;52.970;-3.168;2024-03-07T06:55:14;101373.22;;;1.61;79.88
73566;BME280;61846;52.970;-3.168;2024-03-07T06:57:38;101373.06;;;1.56;80.88
73566;BME280;61846;52.970;-3.168;2024-03-07T07:00:04;101372.02;;;2.69;78.49
73566;BME280;61846;52.970;-3.168;2024-03-07T07:02:29;101375.09;;;3.42;74.57
73566;BME280;61846;52.970;-3.168;2024-03-07T07:04:54;101373.17;;;3.71;72.91
73566;BME280;61846;52.970;-3.168;2024-03-07T07:07:19;101370.75;;;3.78;71.80
73566;BME280;61846;52.970;-3.168;2024-03-07T07:09:44;101373.18;;;3.16;72.92
73566;BME280;61846;52.970;-3.168;2024-03-07T07:12:10;101373.98;;;2.97;72.95
73566;BME280;61846;52.970;-3.168;2024-03-07T07:14:35;101372.23;;;4.00;71.21
73566;BME280;61846;52.970;-3.168;2024-03-07T07:17:02;101380.84;;;2.89;71.64
73566;BME280;61846;52.970;-3.168;2024-03-07T07:19:27;101377.76;;;2.42;75.83
73566;BME280;61846;52.970;-3.168;2024-03-07T07:21:51;101374.57;;;2.09;78.16
73566;BME280;61846;52.970;-3.168;2024-03-07T07:24:16;101373.58;;;3.59;72.30
73566;BME280;61846;52.970;-3.168;2024-03-07T07:26:42;101373.86;;;4.70;69.12
73566;BME280;61846;52.970;-3.168;2024-03-07T07:29:07;101372.25;;;4.54;68.49
73566;BME280;61846;52.970;-3.168;2024-03-07T07:31:32;101371.79;;;4.42;67.87
73566;BME280;61846;52.970;-3.168;2024-03-07T07:33:58;101378.63;;;2.48;73.79
73566;BME280;61846;52.970;-3.168;2024-03-07T07:36:23;101380.55;;;2.07;76.83
73566;BME280;61846;52.970;-3.168;2024-03-07T07:38:48;101380.23;;;3.01;75.32
73566;BME280;61846;52.970;-3.168;2024-03-07T07:41:14;101379.23;;;2.72;75.65
73566;BME280;61846;52.970;-3.168;2024-03-07T07:43:40;101377.50;;;2.42;75.89
73566;BME280;61846;52.970;-3.168;2024-03-07T07:46:05;101370.34;;;3.29;73.82
73566;BME280;61846;52.970;-3.168;2024-03-07T07:48:30;101367.71;;;3.71;70.64
73566;BME280;61846;52.970;-3.168;2024-03-07T07:50:56;101375.91;;;2.62;75.18
73566;BME280;61846;52.970;-3.168;2024-03-07T07:53:22;101388.70;;;1.43;79.10
73566;BME280;61846;52.970;-3.168;2024-03-07T07:55:47;101387.07;;;2.11;78.03
73566;BME280;61846;52.970;-3.168;2024-03-07T07:58:13;101385.78;;;1.28;82.07
73566;BME280;61846;52.970;-3.168;2024-03-07T08:00:38;101377.97;;;3.19;75.49
73566;BME280;61846;52.970;-3.168;2024-03-07T08:03:05;101383.54;;;2.49;76.56
73566;BME280;61846;52.970;-3.168;2024-03-07T08:05:31;101380.95;;;1.46;78.58
73566;BME280;61846;52.970;-3.168;2024-03-07T08:07:57;101382.02;;;2.20;78.77
73566;BME280;61846;52.970;-3.168;2024-03-07T08:10:23;101382.46;;;1.24;80.67
73566;BME280;61846;52.970;-3.168;2024-03-07T08:12:47;101381.32;;;0.99;83.40
73566;BME280;61846;52.970;-3.168;2024-03-07T08:15:12;101374.66;;;2.92;78.65
73566;BME280;61846;52.970;-3.168;2024-03-07T08:17:38;101374.51;;;2.03;78.63
73566;BME280;61846;52.970;-3.168;2024-03-07T08:20:04;101366.97;;;2.49;78.30
73566;BME280;61846;52.970;-3.168;2024-03-07T08:22:29;101369.42;;;2.63;77.20
73566;BME280;61846;52.970;-3.168;2024-03-07T08:24:54;101363.97;;;3.89;72.14
73566;BME280;61846;52.970;-3.168;2024-03-07T08:27:20;101366.01;;;3.97;72.13
73566;BME280;61846;52.970;-3.168;2024-03-07T08:29:45;101365.38;;;3.89;71.42
73566;BME280;61846;52.970;-3.168;2024-03-07T08:32:11;101364.48;;;4.92;69.21
73566;BME280;61846;52.970;-3.168;2024-03-07T08:34:36;101362.96;;;5.00;68.22
73566;BME280;61846;52.970;-3.168;2024-03-07T08:37:01;101360.50;;;5.07;67.93
73566;BME280;61846;52.970;-3.168;2024-03-07T08:39:27;101355.57;;;5.51;66.30
73566;BME280;61846;52.970;-3.168;2024-03-07T08:41:54;101359.24;;;5.23;66.12
73566;BME280;61846;52.970;-3.168;2024-03-07T08:44:18;101354.14;;;6.02;64.21
73566;BME280;61846;52.970;-3.168;2024-03-07T08:46:43;101353.48;;;5.27;66.01
73566;BME280;61846;52.970;-3.168;2024-03-07T08:49:09;101349.62;;;5.47;65.79
73566;BME280;61846;52.970;-3.168;2024-03-07T08:51:35;101350.69;;;4.74;67.25
73566;BME280;61846;52.970;-3.168;2024-03-07T08:54:00;101347.12;;;4.94;68.37
73566;BME280;61846;52.970;-3.168;2024-03-07T08:56:26;101353.09;;;4.81;68.06
73566;BME280;61846;52.970;-3.168;2024-03-07T08:58:51;101348.16;;;3.81;70.18
73566;BME280;61846;52.970;-3.168;2024-03-07T09:01:16;101345.58;;;3.81;72.04
73566;BME280;61846;52.970;-3.168;2024-03-07T09:03:42;101346.18;;;3.30;73.27
73566;BME280;61846;52.970;-3.168;2024-03-07T09:06:07;101347.92;;;4.84;68.35
73566;BME280;61846;52.970;-3.168;2024-03-07T09:08:32;101345.88;;;4.68;69.74
73566;BME280;61846;52.970;-3.168;2024-03-07T09:10:58;101344.06;;;4.50;69.21
73566;BME280;61846;52.970;-3.168;2024-03-07T09:13:24;101343.15;;;3.85;71.81
73566;BME280;61846;52.970;-3.168;2024-03-07T09:15:49;101347.29;;;3.65;73.62
73566;BME280;61846;52.970;-3.168;2024-03-07T09:18:15;101342.38;;;5.06;69.34
73566;BME280;61846;52.970;-3.168;2024-03-07T09:20:40;101343.04;;;2.88;75.15
73566;BME280;61846;52.970;-3.168;2024-03-07T09:23:06;101346.32;;;3.51;73.99
73566;BME280;61846;52.970;-3.168;2024-03-07T09:25:31;101346.05;;;4.70;70.29
73566;BME280;61846;52.970;-3.168;2024-03-07T09:27:57;101345.55;;;4.55;70.70
73566;BME280;61846;52.970;-3.168;2024-03-07T09:30:22;101339.19;;;5.89;66.77
73566;BME280;61846;52.970;-3.168;2024-03-07T09:32:47;101334.11;;;6.29;63.65
73566;BME280;61846;52.970;-3.168;2024-03-07T09:35:12;101334.74;;;7.19;61.14
73566;BME280;61846;52.970;-3.168;2024-03-07T09:37:39;101335.80;;;7.06;61.28
73566;BME280;61846;52.970;-3.168;2024-03-07T09:40:03;101339.63;;;6.56;62.96
73566;BME280;61846;52.970;-3.168;2024-03-07T09:42:28;101338.70;;;5.32;64.23
73566;BME280;61846;52.970;-3.168;2024-03-07T09:44:54;101336.67;;;5.39;66.83
73566;BME280;61846;52.970;-3.168;2024-03-07T09:47:19;101340.03;;;3.30;72.51
73566;BME280;61846;52.970;-3.168;2024-03-07T09:49:45;101332.27;;;5.59;66.86
73566;BME280;61846;52.970;-3.168;2024-03-07T09:52:10;101332.89;;;3.66;71.02
73566;BME280;61846;52.970;-3.168;2024-03-07T09:54:35;101331.34;;;3.83;71.82
73566;BME280;61846;52.970;-3.168;2024-03-07T09:57:03;101332.05;;;4.95;69.35
73566;BME280;61846;52.970;-3.168;2024-03-07T09:59:27;101332.52;;;4.87;67.57
73566;BME280;61846;52.970;-3.168;2024-03-07T10:01:55;101327.15;;;5.63;66.37
73566;BME280;61846;52.970;-3.168;2024-03-07T10:04:19;101322.04;;;5.77;66.07
73566;BME280;61846;52.970;-3.168;2024-03-07T10:06:41;101321.79;;;6.30;63.28
73566;BME280;61846;52.970;-3.168;2024-03-07T10:09:07;101324.88;;;5.20;66.83
73566;BME280;61846;52.970;-3.168;2024-03-07T10:11:33;101316.29;;;5.93;64.70
73566;BME280;61846;52.970;-3.168;2024-03-07T10:13:58;101320.16;;;4.46;68.32
73566;BME280;61846;52.970;-3.168;2024-03-07T10:16:24;101319.92;;;4.92;68.09
73566;BME280;61846;52.970;-3.168;2024-03-07T10:18:50;101320.01;;;4.46;69.64
73566;BME280;61846;52.970;-3.168;2024-03-07T10:21:18;101316.32;;;5.55;67.16
73566;BME280;61846;52.970;-3.168;2024-03-07T10:23:41;101313.03;;;5.88;65.93
73566;BME280;61846;52.970;-3.168;2024-03-07T10:26:06;101320.76;;;4.00;69.75
73566;BME280;61846;52.970;-3.168;2024-03-07T10:28:32;101321.72;;;4.00;70.79
73566;BME280;61846;52.970;-3.168;2024-03-07T10:30:57;101315.88;;;5.71;66.39
73566;BME280;61846;52.970;-3.168;2024-03-07T10:33:27;101320.57;;;3.60;71.94
73566;BME280;61846;52.970;-3.168;2024-03-07T10:35:48;101324.51;;;4.60;68.98
73566;BME280;61846;52.970;-3.168;2024-03-07T10:38:13;101317.70;;;5.02;68.23
73566;BME280;61846;52.970;-3.168;2024-03-07T10:40:39;101318.90;;;4.64;69.08
73566;BME280;61846;52.970;-3.168;2024-03-07T10:43:09;101315.52;;;4.65;68.77
73566;BME280;61846;52.970;-3.168;2024-03-07T10:45:30;101315.14;;;4.50;69.12
73566;BME280;61846;52.970;-3.168;2024-03-07T10:47:56;101312.01;;;4.23;71.23
73566;BME280;61846;52.970;-3.168;2024-03-07T10:50:28;101305.51;;;5.27;67.31
73566;BME280;61846;52.970;-3.168;2024-03-07T10:52:52;101299.13;;;5.74;65.71
73566;BME280;61846;52.970;-3.168;2024-03-07T10:55:18;101301.90;;;5.17;67.27
73566;BME280;61846;52.970;-3.168;2024-03-07T10:57:45;101298.66;;;5.74;65.72
73566;BME280;61846;52.970;-3.168;2024-03-07T11:00:04;101304.96;;;4.15;68.77
73566;BME280;61846;52.970;-3.168;2024-03-07T11:02:33;101301.32;;;4.45;68.46
73566;BME280;61846;52.970;-3.168;2024-03-07T11:04:53;101298.06;;;5.46;66.01
73566;BME280;61846;52.970;-3.168;2024-03-07T11:07:18;101299.86;;;4.83;68.72
73566;BME280;61846;52.970;-3.168;2024-03-07T11:09:43;101296.34;;;4.69;67.46
73566;BME280;61846;52.970;-3.168;2024-03-07T11:12:09;101294.43;;;5.07;67.29
73566;BME280;61846;52.970;-3.168;2024-03-07T11:14:34;101289.89;;;5.26;67.41
73566;BME280;61846;52.970;-3.168;2024-03-07T11:17:01;101288.11;;;5.98;64.69
73566;BME280;61846;52.970;-3.168;2024-03-07T11:19:25;101280.69;;;7.30;60.40
73566;BME280;61846;52.970;-3.168;2024-03-07T11:21:50;101277.78;;;6.87;60.84
73566;BME280;61846;52.970;-3.168;2024-03-07T11:24:26;101272.57;;;7.62;59.64
73566;BME280;61846;52.970;-3.168;2024-03-07T11:26:41;101276.53;;;5.92;63.28
73566;BME280;61846;52.970;-3.168;2024-03-07T11:31:32;101268.18;;;6.17;64.77
73566;BME280;61846;52.970;-3.168;2024-03-07T11:34:13;101262.54;;;5.71;64.68
73566;BME280;61846;52.970;-3.168;2024-03-07T11:38:49;101255.79;;;6.99;61.99
73566;BME280;61846;52.970;-3.168;2024-03-07T11:41:14;101253.88;;;7.60;58.44
73566;BME280;61846;52.970;-3.168;2024-03-07T11:43:41;101255.35;;;8.21;56.58
73566;BME280;61846;52.970;-3.168;2024-03-07T11:46:06;101257.72;;;7.24;59.24
73566;BME280;61846;52.970;-3.168;2024-03-07T11:48:31;101255.44;;;6.21;62.14
73566;BME280;61846;52.970;-3.168;2024-03-07T11:50:56;101255.94;;;5.04;67.11
73566;BME280;61846;52.970;-3.168;2024-03-07T11:53:22;101253.17;;;5.02;65.14
73566;BME280;61846;52.970;-3.168;2024-03-07T11:55:47;101253.93;;;5.88;64.84
73566;BME280;61846;52.970;-3.168;2024-03-07T11:58:13;101252.70;;;4.86;67.53
73566;BME280;61846;52.970;-3.168;2024-03-07T12:00:38;101248.85;;;6.50;63.04
73566;BME280;61846;52.970;-3.168;2024-03-07T12:03:04;101246.39;;;6.77;62.29
73566;BME280;61846;52.970;-3.168;2024-03-07T12:05:32;101242.81;;;7.35;59.98
73566;BME280;61846;52.970;-3.168;2024-03-07T12:07:56;101241.66;;;7.03;61.08
73566;BME280;61846;52.970;-3.168;2024-03-07T12:10:20;101238.30;;;6.79;61.49
73566;BME280;61846;52.970;-3.168;2024-03-07T12:12:46;101243.66;;;5.14;67.13
73566;BME280;61846;52.970;-3.168;2024-03-07T12:15:11;101245.75;;;4.79;67.90
73566;BME280;61846;52.970;-3.168;2024-03-07T12:17:37;101234.96;;;5.16;67.05
73566;BME280;61846;52.970;-3.168;2024-03-07T12:20:02;101231.67;;;5.84;65.22
73566;BME280;61846;52.970;-3.168;2024-03-07T12:22:29;101231.48;;;5.71;64.78
73566;BME280;61846;52.970;-3.168;2024-03-07T12:25:01;101224.57;;;5.52;65.85
73566;BME280;61846;52.970;-3.168;2024-03-07T12:27:18;101215.29;;;6.35;62.88
73566;BME280;61846;52.970;-3.168;2024-03-07T12:29:44;101220.36;;;5.37;65.09
73566;BME280;61846;52.970;-3.168;2024-03-07T12:32:12;101219.59;;;4.26;68.61
73566;BME280;61846;52.970;-3.168;2024-03-07T12:34:35;101219.32;;;4.44;68.55
73566;BME280;61846;52.970;-3.168;2024-03-07T12:37:00;101218.51;;;4.77;68.52
73566;BME280;61846;52.970;-3.168;2024-03-07T12:39:25;101215.76;;;4.88;67.80
73566;BME280;61846;52.970;-3.168;2024-03-07T12:41:51;101210.46;;;4.86;67.53
73566;BME280;61846;52.970;-3.168;2024-03-07T12:44:16;101211.73;;;5.00;67.50